Time;durP1;ratioP1;P1;durP2;ratioP2;P2;SDS_P1;SDS_P2;PMS_P1;PMS_P2;Temp;Humidity;BMP_temperature;BMP_pressure;BME280_temperature;BME280_humidity;BME280_pressure;Samples;Min_cycle;Max_cycle;Signal;HPM_P1;HPM_P2
2023/04/07 00:01:31;;;;;;;12.57;5.75;;;;;;;;;;5031004;28;20061;-73
2023/04/07 00:03:59;;;;;;;11.57;5.13;;;;;;;;;;5034956;28;20064;-74
2023/04/07 00:06:26;;;;;;;13.05;5.47;;;;;;;;;;5035444;28;20143;-73
2023/04/07 00:08:53;;;;;;;13.18;5.72;;;;;;;;;;5024956;28;20065;-73
2023/04/07 00:11:20;;;;;;;12.02;5.20;;;;;;;;;;5034134;28;20052;-72
2023/04/07 00:13:46;;;;;;;10.55;4.82;;;;;;;;;;5031389;28;20167;-74
2023/04/07 00:16:13;;;;;;;11.45;5.65;;;;;;;;;;5034586;28;20060;-74
2023/04/07 00:18:40;;;;;;;13.45;5.75;;;;;;;;;;5023229;28;20128;-74
2023/04/07 00:21:10;;;;;;;10.10;5.03;;;;;;;;;;5027047;28;20365;-74
2023/04/07 00:23:37;;;;;;;13.23;5.47;;;;;;;;;;5031205;28;20052;-72
2023/04/07 00:26:03;;;;;;;9.77;4.90;;;;;;;;;;5033400;28;20136;-74
2023/04/07 00:28:30;;;;;;;10.85;5.03;;;;;;;;;;5032276;28;20076;-72
2023/04/07 00:30:59;;;;;;;12.48;5.10;;;;;;;;;;5028058;28;20045;-72
2023/04/07 00:33:26;;;;;;;9.93;4.78;;;;;;;;;;5032950;28;20151;-73
2023/04/07 00:35:53;;;;;;;10.23;5.07;;;;;;;;;;5068610;28;20284;-74
2023/04/07 00:38:21;;;;;;;10.15;4.75;;;;;;;;;;5034435;28;20081;-73
2023/04/07 00:40:48;;;;;;;10.80;4.28;;;;;;;;;;5037446;28;20057;-72
2023/04/07 00:43:16;;;;;;;10.80;5.22;;;;;;;;;;5036865;28;20823;-72
2023/04/07 00:45:43;;;;;;;9.23;4.18;;;;;;;;;;5039569;28;20116;-73
2023/04/07 00:48:10;;;;;;;8.82;4.57;;;;;;;;;;5035936;28;20132;-75
2023/04/07 00:50:37;;;;;;;8.60;4.18;;;;;;;;;;5029574;28;20082;-75
2023/04/07 00:53:04;;;;;;;9.55;4.00;;;;;;;;;;5031288;28;20053;-74
2023/04/07 00:55:32;;;;;;;10.68;4.57;;;;;;;;;;5034872;28;20061;-76
2023/04/07 00:57:59;;;;;;;9.27;3.97;;;;;;;;;;5072013;28;20072;-73
2023/04/07 01:00:26;;;;;;;9.90;4.00;;;;;;;;;;5034885;28;20049;-72
2023/04/07 01:02:57;;;;;;;9.80;4.65;;;;;;;;;;5032870;28;20072;-73
2023/04/07 01:05:26;;;;;;;10.48;4.22;;;;;;;;;;5033815;28;20049;-74
2023/04/07 01:07:58;;;;;;;11.63;4.70;;;;;;;;;;5038017;28;20099;-72
2023/04/07 01:10:28;;;;;;;9.23;3.97;;;;;;;;;;5033180;28;20067;-73
2023/04/07 01:13:00;;;;;;;8.90;4.15;;;;;;;;;;5032974;28;20212;-71
2023/04/07 01:15:27;;;;;;;9.00;4.07;;;;;;;;;;5033856;28;20062;-73
2023/04/07 01:17:58;;;;;;;9.30;3.78;;;;;;;;;;5038153;28;20045;-73
2023/04/07 01:20:26;;;;;;;7.07;3.47;;;;;;;;;;5005511;28;20048;-75
2023/04/07 01:22:55;;;;;;;11.10;4.30;;;;;;;;;;5030283;28;20053;-73
2023/04/07 01:25:35;;;;;;;12.00;3.75;;;;;;;;;;5032156;28;20049;-72
2023/04/07 01:28:14;;;;;;;8.40;3.50;;;;;;;;;;5017615;28;20061;-72
2023/04/07 01:30:46;;;;;;;9.80;3.67;;;;;;;;;;5055805;28;20397;-74
2023/04/07 01:33:14;;;;;;;9.38;3.90;;;;;;;;;;5038154;28;20135;-74
2023/04/07 01:35:41;;;;;;;9.03;4.03;;;;;;;;;;5067680;27;20052;-74
2023/04/07 01:38:09;;;;;;;7.40;3.42;;;;;;;;;;5036477;28;20310;-73
2023/04/07 01:40:36;;;;;;;9.45;3.45;;;;;;;;;;5039295;28;20055;-74
2023/04/07 01:43:03;;;;;;;8.20;3.30;;;;;;;;;;5038881;28;20322;-74
2023/04/07 01:45:30;;;;;;;8.57;3.72;;;;;;;;;;5032984;28;20048;-73
2023/04/07 01:47:59;;;;;;;7.32;3.40;;;;;;;;;;5017977;28;20057;-72
2023/04/07 01:50:26;;;;;;;10.45;3.58;;;;;;;;;;5017772;28;20068;-74
2023/04/07 01:52:53;;;;;;;8.00;3.63;;;;;;;;;;5062499;27;20052;-73
2023/04/07 01:55:21;;;;;;;10.45;3.75;;;;;;;;;;5036063;28;20057;-73
2023/04/07 01:57:47;;;;;;;7.75;3.00;;;;;;;;;;5037385;28;20172;-73
2023/04/07 02:00:14;;;;;;;9.40;3.55;;;;;;;;;;5036932;28;20056;-74
2023/04/07 02:02:42;;;;;;;8.15;3.40;;;;;;;;;;5052137;28;20061;-72
2023/04/07 02:05:13;;;;;;;9.37;3.40;;;;;;;;;;5050562;28;20057;-72
2023/04/07 02:07:42;;;;;;;8.63;3.25;;;;;;;;;;5068323;28;20053;-74
2023/04/07 02:10:12;;;;;;;9.63;3.83;;;;;;;;;;5021824;28;20057;-73
2023/04/07 02:12:39;;;;;;;7.90;3.60;;;;;;;;;;5063385;27;20041;-71
2023/04/07 02:15:08;;;;;;;11.65;3.95;;;;;;;;;;5037901;28;20128;-73
2023/04/07 02:17:36;;;;;;;10.40;3.75;;;;;;;;;;5032158;28;20075;-73
2023/04/07 02:20:03;;;;;;;8.93;3.67;;;;;;;;;;5012301;28;20070;-71
2023/04/07 02:22:33;;;;;;;8.32;3.65;;;;;;;;;;5060431;28;20243;-72
2023/04/07 02:25:00;;;;;;;9.48;3.85;;;;;;;;;;5036635;28;20053;-72
2023/04/07 02:27:26;;;;;;;7.80;3.53;;;;;;;;;;5032192;28;20077;-73
2023/04/07 02:29:53;;;;;;;6.88;3.17;;;;;;;;;;5035901;28;20054;-73
2023/04/07 02:32:20;;;;;;;10.57;3.50;;;;;;;;;;5026470;28;20056;-72
2023/04/07 02:34:47;;;;;;;8.95;3.72;;;;;;;;;;5046537;28;20052;-73
2023/04/07 02:37:14;;;;;;;9.18;3.22;;;;;;;;;;5061589;28;20056;-72
2023/04/07 02:39:42;;;;;;;9.18;3.67;;;;;;;;;;5033722;28;20053;-73
2023/04/07 02:42:09;;;;;;;8.65;3.63;;;;;;;;;;5029857;28;20059;-74
2023/04/07 02:44:36;;;;;;;10.60;3.67;;;;;;;;;;5032824;28;20160;-72
2023/04/07 02:47:03;;;;;;;8.45;3.55;;;;;;;;;;5035630;28;20052;-73
2023/04/07 02:49:29;;;;;;;8.85;3.55;;;;;;;;;;5033950;28;20060;-72
2023/04/07 02:51:56;;;;;;;8.18;3.40;;;;;;;;;;5033896;28;20061;-73
2023/04/07 02:54:23;;;;;;;8.15;3.40;;;;;;;;;;5029786;27;20205;-73
2023/04/07 02:56:51;;;;;;;7.85;3.25;;;;;;;;;;5035395;28;20053;-73
2023/04/07 02:59:18;;;;;;;10.52;3.78;;;;;;;;;;5032210;28;20045;-72
2023/04/07 03:01:44;;;;;;;8.50;3.53;;;;;;;;;;5026248;28;20056;-72
2023/04/07 03:04:11;;;;;;;9.98;3.35;;;;;;;;;;5026099;28;20103;-73
2023/04/07 03:06:38;;;;;;;9.93;3.65;;;;;;;;;;5036838;28;20061;-72
2023/04/07 03:09:04;;;;;;;9.43;4.05;;;;;;;;;;5031508;28;20059;-73
2023/04/07 03:11:31;;;;;;;7.55;3.25;;;;;;;;;;5052156;28;20053;-73
2023/04/07 03:14:00;;;;;;;8.95;3.88;;;;;;;;;;5056347;28;20136;-74
2023/04/07 03:16:27;;;;;;;7.00;3.28;;;;;;;;;;5045799;28;20067;-71
2023/04/07 03:18:53;;;;;;;13.05;3.60;;;;;;;;;;5034987;28;20045;-72
2023/04/07 03:21:20;;;;;;;12.68;4.00;;;;;;;;;;5023000;28;20140;-72
2023/04/07 03:23:47;;;;;;;9.20;3.85;;;;;;;;;;5034361;28;20052;-73
2023/04/07 03:26:14;;;;;;;10.50;3.83;;;;;;;;;;5023978;28;20102;-71
2023/04/07 03:28:40;;;;;;;9.70;4.10;;;;;;;;;;5040528;28;20056;-73
2023/04/07 03:31:09;;;;;;;9.02;3.83;;;;;;;;;;5030974;28;20049;-73
2023/04/07 03:33:35;;;;;;;9.88;3.80;;;;;;;;;;5036146;28;20060;-73
2023/04/07 03:36:02;;;;;;;9.20;3.63;;;;;;;;;;5027738;28;20067;-73
2023/04/07 03:38:30;;;;;;;10.07;3.97;;;;;;;;;;5034748;28;20065;-72
2023/04/07 03:40:56;;;;;;;8.45;3.78;;;;;;;;;;5037418;28;20140;-73
2023/04/07 03:43:23;;;;;;;9.70;4.03;;;;;;;;;;5035516;28;20144;-71
2023/04/07 03:45:50;;;;;;;10.55;3.78;;;;;;;;;;5031447;28;20052;-72
2023/04/07 03:48:18;;;;;;;9.48;3.55;;;;;;;;;;5032307;28;20076;-72
2023/04/07 03:50:45;;;;;;;8.75;3.22;;;;;;;;;;5064602;28;20110;-72
2023/04/07 03:53:13;;;;;;;11.70;4.18;;;;;;;;;;5034023;28;20053;-73
2023/04/07 03:55:41;;;;;;;8.47;3.73;;;;;;;;;;5030772;28;20049;-72
2023/04/07 03:58:08;;;;;;;8.02;3.60;;;;;;;;;;5027419;28;20144;-72
2023/04/07 04:00:35;;;;;;;9.93;4.50;;;;;;;;;;5035135;28;20061;-72
2023/04/07 04:03:01;;;;;;;8.15;3.78;;;;;;;;;;5032613;28;20071;-72
2023/04/07 04:05:30;;;;;;;11.75;4.57;;;;;;;;;;5035221;28;20059;-72
2023/04/07 04:07:57;;;;;;;9.75;4.15;;;;;;;;;;5020015;28;20068;-74
2023/04/07 04:10:24;;;;;;;13.98;4.50;;;;;;;;;;5019628;28;20072;-73
2023/04/07 04:12:51;;;;;;;11.57;4.75;;;;;;;;;;5028343;28;20135;-73
2023/04/07 04:15:17;;;;;;;10.52;4.28;;;;;;;;;;5039860;28;20048;-72
2023/04/07 04:17:44;;;;;;;9.45;4.32;;;;;;;;;;5037419;28;20076;-72
2023/04/07 04:20:11;;;;;;;13.20;4.22;;;;;;;;;;5031817;28;20063;-73
2023/04/07 04:22:39;;;;;;;7.75;4.00;;;;;;;;;;5019669;28;20052;-73
2023/04/07 04:25:06;;;;;;;11.35;4.07;;;;;;;;;;5073543;28;20049;-73
2023/04/07 04:27:32;;;;;;;10.48;4.00;;;;;;;;;;5033682;28;20103;-71
2023/04/07 04:29:59;;;;;;;8.27;3.97;;;;;;;;;;5037169;28;20059;-73
2023/04/07 04:32:26;;;;;;;13.10;4.28;;;;;;;;;;5031612;27;21016;-72
2023/04/07 04:34:53;;;;;;;10.30;4.72;;;;;;;;;;5044230;28;20175;-72
2023/04/07 04:37:19;;;;;;;10.45;4.70;;;;;;;;;;5033958;28;20096;-71
2023/04/07 04:39:47;;;;;;;8.27;3.58;;;;;;;;;;5039925;28;20052;-72
2023/04/07 04:42:15;;;;;;;11.20;3.90;;;;;;;;;;5027939;28;20048;-72
2023/04/07 04:44:42;;;;;;;8.90;4.13;;;;;;;;;;5071081;27;20092;-72
2023/04/07 04:47:08;;;;;;;14.52;4.53;;;;;;;;;;5042752;28;20057;-72
2023/04/07 04:49:35;;;;;;;10.35;4.00;;;;;;;;;;5034808;28;20061;-72
2023/04/07 04:52:03;;;;;;;9.88;4.18;;;;;;;;;;5032949;28;20063;-73
2023/04/07 04:54:30;;;;;;;11.60;4.45;;;;;;;;;;5028851;28;20068;-74
2023/04/07 04:56:58;;;;;;;9.38;4.13;;;;;;;;;;5033631;28;20245;-72
2023/04/07 04:59:25;;;;;;;10.40;3.72;;;;;;;;;;5035167;28;20066;-73
2023/04/07 05:01:52;;;;;;;13.45;4.22;;;;;;;;;;5039810;28;20080;-74
2023/04/07 05:04:19;;;;;;;12.20;4.50;;;;;;;;;;5026355;28;20049;-72
2023/04/07 05:06:46;;;;;;;10.13;4.22;;;;;;;;;;5030199;28;20103;-73
2023/04/07 05:09:12;;;;;;;9.68;3.95;;;;;;;;;;5037251;28;20053;-71
2023/04/07 05:11:40;;;;;;;9.93;4.25;;;;;;;;;;5055582;28;20114;-72
2023/04/07 05:14:09;;;;;;;9.02;3.80;;;;;;;;;;5064762;27;20041;-71
2023/04/07 05:16:35;;;;;;;9.65;3.97;;;;;;;;;;5039099;28;20063;-72
2023/04/07 05:19:02;;;;;;;9.43;3.95;;;;;;;;;;5068833;28;20045;-73
2023/04/07 05:21:33;;;;;;;9.20;3.85;;;;;;;;;;5070861;28;20065;-71
2023/04/07 05:24:03;;;;;;;13.43;3.85;;;;;;;;;;5030854;28;20056;-73
2023/04/07 05:26:30;;;;;;;11.82;3.88;;;;;;;;;;5044011;27;20067;-72
2023/04/07 05:29:00;;;;;;;10.32;4.20;;;;;;;;;;5046952;28;20040;-71
2023/04/07 05:31:28;;;;;;;12.10;4.00;;;;;;;;;;5037061;28;20099;-72
2023/04/07 05:33:58;;;;;;;9.85;3.97;;;;;;;;;;5038806;28;20056;-71
2023/04/07 05:36:26;;;;;;;11.82;4.38;;;;;;;;;;5028162;28;20052;-73
2023/04/07 05:38:55;;;;;;;9.32;3.78;;;;;;;;;;5036836;28;20061;-73
2023/04/07 05:41:22;;;;;;;12.13;4.35;;;;;;;;;;5044224;28;20057;-73
2023/04/07 05:43:49;;;;;;;11.80;3.42;;;;;;;;;;5036503;28;20079;-71
2023/04/07 05:46:16;;;;;;;9.00;3.63;;;;;;;;;;5027971;28;20112;-73
2023/04/07 05:48:45;;;;;;;8.17;3.43;;;;;;;;;;5036315;28;20104;-72
2023/04/07 05:51:12;;;;;;;10.68;3.42;;;;;;;;;;5032651;28;20057;-72
2023/04/07 05:53:39;;;;;;;10.60;3.67;;;;;;;;;;5069206;28;20055;-73
2023/04/07 05:56:15;;;;;;;9.20;3.35;;;;;;;;;;5041287;28;20172;-73
2023/04/07 05:58:42;;;;;;;10.25;3.72;;;;;;;;;;5039936;28;20064;-72
2023/04/07 06:01:08;;;;;;;10.38;3.70;;;;;;;;;;5030375;28;20141;-72
2023/04/07 06:03:35;;;;;;;10.73;3.85;;;;;;;;;;5085160;28;20067;-71
2023/04/07 06:06:04;;;;;;;8.50;3.83;;;;;;;;;;5027964;28;20119;-73
2023/04/07 06:08:32;;;;;;;7.47;3.30;;;;;;;;;;5028613;28;20051;-72
2023/04/07 06:11:00;;;;;;;9.32;3.28;;;;;;;;;;5025026;28;20132;-72
2023/04/07 06:13:27;;;;;;;8.18;3.20;;;;;;;;;;5070239;28;20072;-72
2023/04/07 06:15:55;;;;;;;9.25;3.60;;;;;;;;;;5017389;28;20057;-72
2023/04/07 06:18:25;;;;;;;7.20;3.03;;;;;;;;;;5033655;28;20055;-72
2023/04/07 06:20:54;;;;;;;8.10;3.45;;;;;;;;;;5037555;28;20055;-73
2023/04/07 06:23:22;;;;;;;9.18;3.78;;;;;;;;;;5032046;28;20057;-72
2023/04/07 06:25:52;;;;;;;8.05;3.47;;;;;;;;;;5028644;28;20064;-72
2023/04/07 06:28:20;;;;;;;9.23;3.58;;;;;;;;;;5057482;28;20330;-72
2023/04/07 06:30:49;;;;;;;6.38;2.88;;;;;;;;;;5039172;28;20052;-72
2023/04/07 06:33:16;;;;;;;7.50;3.08;;;;;;;;;;5037784;28;20056;-72
2023/04/07 06:35:44;;;;;;;7.88;3.05;;;;;;;;;;5035866;28;20076;-73
2023/04/07 06:38:11;;;;;;;;;;;;;;;;;;5027661;28;20060;-73
2023/04/07 06:40:39;;;;;;;7.60;3.05;;;;;;;;;;5039083;28;19952;-72
2023/04/07 06:43:06;;;;;;;6.53;3.00;;;;;;;;;;5032472;28;20045;-72
2023/04/07 06:45:33;;;;;;;7.45;3.30;;;;;;;;;;5036957;28;20056;-72
2023/04/07 06:48:00;;;;;;;9.15;3.60;;;;;;;;;;5031843;28;20072;-73
2023/04/07 06:50:26;;;;;;;12.55;3.72;;;;;;;;;;5033516;28;20118;-72
2023/04/07 06:52:53;;;;;;;7.32;3.15;;;;;;;;;;5030679;28;20057;-72
2023/04/07 06:55:22;;;;;;;6.57;3.28;;;;;;;;;;5035737;28;20056;-73
2023/04/07 06:57:52;;;;;;;8.55;3.33;;;;;;;;;;5038349;28;20068;-72
2023/04/07 07:00:21;;;;;;;9.13;3.10;;;;;;;;;;5030435;28;20059;-72
2023/04/07 07:02:48;;;;;;;10.88;3.10;;;;;;;;;;5032156;28;20048;-72
2023/04/07 07:05:20;;;;;;;7.43;3.05;;;;;;;;;;5035553;28;20056;-73
2023/04/07 07:07:49;;;;;;;8.27;3.10;;;;;;;;;;5033627;28;20080;-72
2023/04/07 07:10:16;;;;;;;11.10;3.33;;;;;;;;;;5024416;28;20132;-72
2023/04/07 07:12:43;;;;;;;8.48;3.35;;;;;;;;;;5051530;28;20121;-73
2023/04/07 07:15:12;;;;;;;9.35;3.25;;;;;;;;;;5045624;28;20066;-73
2023/04/07 07:17:39;;;;;;;8.98;3.45;;;;;;;;;;5044508;28;20063;-72
2023/04/07 07:20:09;;;;;;;8.50;3.13;;;;;;;;;;5040690;28;20056;-72
2023/04/07 07:22:35;;;;;;;7.70;3.25;;;;;;;;;;5043569;28;20063;-72
2023/04/07 07:25:02;;;;;;;9.20;3.50;;;;;;;;;;5035886;28;20064;-73
2023/04/07 07:27:29;;;;;;;9.82;2.88;;;;;;;;;;5035545;28;20056;-72
2023/04/07 07:32:41;;;;;;;9.90;3.10;;;;;;;;;;5066245;28;20057;-72
2023/04/07 07:35:08;;;;;;;8.18;3.45;;;;;;;;;;5064409;28;20049;-72
2023/04/07 07:37:34;;;;;;;11.18;3.85;;;;;;;;;;5039434;28;20052;-72
2023/04/07 07:40:05;;;;;;;8.82;3.08;;;;;;;;;;5027728;28;20060;-71
2023/04/07 07:42:34;;;;;;;7.60;2.97;;;;;;;;;;5069149;28;20068;-72
2023/04/07 07:45:01;;;;;;;13.07;3.40;;;;;;;;;;5034475;28;20064;-72
2023/04/07 07:47:31;;;;;;;8.40;3.67;;;;;;;;;;5035369;28;20139;-72
2023/04/07 07:50:07;;;;;;;8.38;3.17;;;;;;;;;;5025461;28;20318;-72
2023/04/07 07:52:47;;;;;;;9.65;3.13;;;;;;;;;;5030680;28;20127;-72
2023/04/07 07:55:14;;;;;;;6.63;3.17;;;;;;;;;;5032086;28;20061;-71
2023/04/07 07:57:41;;;;;;;7.32;2.88;;;;;;;;;;5033502;28;20057;-72
2023/04/07 08:00:14;;;;;;;7.03;2.80;;;;;;;;;;5030631;28;20225;-72
2023/04/07 08:02:43;;;;;;;9.23;2.80;;;;;;;;;;5047123;28;20066;-72
2023/04/07 08:05:11;;;;;;;10.30;3.17;;;;;;;;;;5039299;28;20040;-72
2023/04/07 08:07:45;;;;;;;6.60;2.90;;;;;;;;;;5020361;28;20061;-72
2023/04/07 08:10:12;;;;;;;6.45;3.00;;;;;;;;;;5041357;28;20059;-72
2023/04/07 08:12:39;;;;;;;6.65;3.15;;;;;;;;;;5040146;28;20048;-72
2023/04/07 08:15:09;;;;;;;6.50;2.92;;;;;;;;;;5042506;28;20051;-72
2023/04/07 08:17:36;;;;;;;6.97;3.30;;;;;;;;;;5032492;28;20072;-72
2023/04/07 08:20:04;;;;;;;9.95;3.08;;;;;;;;;;5037568;28;20060;-72
2023/04/07 08:22:32;;;;;;;9.30;3.17;;;;;;;;;;5037261;28;20063;-72
2023/04/07 08:25:00;;;;;;;9.05;3.25;;;;;;;;;;5070654;28;20049;-71
2023/04/07 08:27:30;;;;;;;6.00;3.10;;;;;;;;;;5032854;28;20088;-72
2023/04/07 08:30:00;;;;;;;8.57;3.33;;;;;;;;;;5036689;28;20303;-72
2023/04/07 08:32:34;;;;;;;11.18;3.28;;;;;;;;;;5033775;28;20084;-73
2023/04/07 08:35:03;;;;;;;9.48;2.85;;;;;;;;;;5058088;28;20048;-72
2023/04/07 08:37:35;;;;;;;7.90;3.15;;;;;;;;;;5039832;28;20167;-71
2023/04/07 08:40:06;;;;;;;8.90;3.03;;;;;;;;;;5038070;28;20055;-71
2023/04/07 08:42:35;;;;;;;7.97;3.40;;;;;;;;;;5037003;28;20087;-72
2023/04/07 08:45:04;;;;;;;11.73;3.30;;;;;;;;;;5029713;28;20049;-72
2023/04/07 08:47:39;;;;;;;10.73;3.08;;;;;;;;;;4997453;28;20052;-72
2023/04/07 08:52:10;;;;;;;34.17;15.35;;;;;;;;;;5037742;27;1415630;-70
2023/04/07 08:54:36;;;;;;;37.55;17.73;;;;;;;;;;5067811;28;20122;-66
2023/04/07 08:57:03;;;;;;;38.75;19.25;;;;;;;;;;4982077;28;20282;-68
2023/04/07 08:59:32;;;;;;;35.90;17.83;;;;;;;;;;4980609;28;20121;-69
2023/04/07 09:02:04;;;;;;;36.95;15.95;;;;;;;;;;4996646;28;20053;-71
2023/04/07 09:04:31;;;;;;;31.13;13.50;;;;;;;;;;5027675;28;20123;-68
2023/04/07 09:07:04;;;;;;;23.92;11.10;;;;;;;;;;5024302;28;20061;-70
2023/04/07 09:09:34;;;;;;;21.88;10.90;;;;;;;;;;5028147;28;20472;-68
2023/04/07 09:12:14;;;;;;;27.42;11.40;;;;;;;;;;5032075;28;20049;-68
2023/04/07 09:14:43;;;;;;;19.50;8.65;;;;;;;;;;5027566;28;20168;-69
2023/04/07 09:17:10;;;;;;;17.65;7.75;;;;;;;;;;5027670;28;20060;-69
2023/04/07 09:19:36;;;;;;;15.57;7.00;;;;;;;;;;5027776;28;20057;-68
2023/04/07 09:22:02;;;;;;;16.17;6.70;;;;;;;;;;5030903;28;20067;-68
2023/04/07 09:24:30;;;;;;;14.20;6.32;;;;;;;;;;5029109;28;20080;-71
2023/04/07 09:27:11;;;;;;;14.43;6.17;;;;;;;;;;5022111;28;20062;-69
2023/04/07 09:29:40;;;;;;;14.63;5.65;;;;;;;;;;5018611;28;20053;-71
2023/04/07 09:32:08;;;;;;;12.70;6.07;;;;;;;;;;5030005;28;20050;-68
2023/04/07 09:34:40;;;;;;;16.58;5.63;;;;;;;;;;5027479;28;20045;-67
2023/04/07 09:37:21;;;;;;;15.18;4.80;;;;;;;;;;5029998;28;20057;-69
2023/04/07 09:39:52;;;;;;;10.70;5.32;;;;;;;;;;5028992;28;20053;-68
2023/04/07 09:42:25;;;;;;;12.90;5.20;;;;;;;;;;5029125;28;20473;-70
2023/04/07 09:44:52;;;;;;;13.05;5.00;;;;;;;;;;5024727;28;20052;-67
2023/04/07 09:47:25;;;;;;;14.10;4.85;;;;;;;;;;5021939;28;20073;-69
2023/04/07 09:49:54;;;;;;;12.57;4.95;;;;;;;;;;5018182;28;20135;-68
2023/04/07 09:52:45;;;;;;;11.50;5.20;;;;;;;;;;5030402;28;20049;-68
2023/04/07 09:55:12;;;;;;;10.68;4.75;;;;;;;;;;5013986;28;20164;-69
2023/04/07 09:57:41;;;;;;;10.85;4.50;;;;;;;;;;5050120;28;20049;-69
2023/04/07 10:00:10;;;;;;;8.65;4.07;;;;;;;;;;5061522;28;20110;-69
2023/04/07 10:02:36;;;;;;;;;;;;;;;;;;5046987;28;20051;-68
2023/04/07 10:05:03;;;;;;;10.98;4.13;;;;;;;;;;5028604;28;19998;-68
2023/04/07 10:07:29;;;;;;;9.57;4.28;;;;;;;;;;5041852;28;20044;-69
2023/04/07 10:10:00;;;;;;;10.20;4.45;;;;;;;;;;5033144;28;20071;-69
2023/04/07 10:12:34;;;;;;;9.88;4.45;;;;;;;;;;5049495;28;20150;-70
2023/04/07 10:15:12;;;;;;;6.70;3.65;;;;;;;;;;5044936;28;20061;-70
2023/04/07 10:17:45;;;;;;;9.98;4.10;;;;;;;;;;5028878;28;20152;-71
2023/04/07 10:20:12;;;;;;;10.05;3.97;;;;;;;;;;5038379;28;20175;-69
2023/04/07 10:22:41;;;;;;;10.85;3.83;;;;;;;;;;5026236;28;20053;-70
2023/04/07 10:25:09;;;;;;;8.63;3.70;;;;;;;;;;5023483;28;20118;-69
2023/04/07 10:27:39;;;;;;;8.15;3.50;;;;;;;;;;5034395;28;20056;-71
2023/04/07 10:30:14;;;;;;;7.97;3.63;;;;;;;;;;5049206;28;20066;-70
2023/04/07 10:32:47;;;;;;;9.32;3.95;;;;;;;;;;5035717;28;20053;-69
2023/04/07 10:35:13;;;;;;;7.82;3.65;;;;;;;;;;5034717;28;20061;-70
2023/04/07 10:37:40;;;;;;;9.35;3.65;;;;;;;;;;5034039;28;20230;-71
2023/04/07 10:40:28;;;;;;;9.50;3.35;;;;;;;;;;5028189;28;20121;-69
2023/04/07 10:42:55;;;;;;;6.32;2.85;;;;;;;;;;5044387;28;20053;-68
2023/04/07 10:45:43;;;;;;;7.03;2.97;;;;;;;;;;5037729;28;20083;-67
2023/04/07 10:48:14;;;;;;;8.10;3.00;;;;;;;;;;5032510;28;20125;-70
2023/04/07 10:50:44;;;;;;;10.10;3.50;;;;;;;;;;5003845;28;20061;-71
2023/04/07 10:53:17;;;;;;;6.45;3.03;;;;;;;;;;5036094;28;20056;-70
2023/04/07 10:55:51;;;;;;;7.75;3.08;;;;;;;;;;5055315;28;20057;-71
2023/04/07 10:58:19;;;;;;;8.98;3.08;;;;;;;;;;5026511;28;20060;-68
2023/04/07 11:01:07;;;;;;;8.05;3.22;;;;;;;;;;5032591;28;20080;-71
2023/04/07 11:03:36;;;;;;;10.55;3.25;;;;;;;;;;5020190;28;20309;-71
2023/04/07 11:06:03;;;;;;;6.55;2.83;;;;;;;;;;5030176;28;20084;-68
2023/04/07 11:08:32;;;;;;;10.80;2.90;;;;;;;;;;5042644;28;20335;-70
2023/04/07 11:10:59;;;;;;;12.45;3.25;;;;;;;;;;5004509;28;20060;-71
2023/04/07 11:13:26;;;;;;;5.80;2.92;;;;;;;;;;5008865;28;20078;-68
2023/04/07 11:15:53;;;;;;;8.07;2.92;;;;;;;;;;5024808;28;20112;-69
2023/04/07 11:18:23;;;;;;;7.72;2.97;;;;;;;;;;5015124;28;20163;-68
2023/04/07 11:20:52;;;;;;;10.52;3.10;;;;;;;;;;5032020;28;20257;-67
2023/04/07 11:23:24;;;;;;;5.97;2.42;;;;;;;;;;5034136;28;20059;-70
2023/04/07 11:25:51;;;;;;;6.43;2.60;;;;;;;;;;5036911;28;20095;-69
2023/04/07 11:28:18;;;;;;;5.33;2.63;;;;;;;;;;5027785;28;20076;-67
2023/04/07 11:30:47;;;;;;;7.13;2.92;;;;;;;;;;5029894;28;20049;-72
2023/04/07 11:33:17;;;;;;;5.90;2.53;;;;;;;;;;5031710;28;20053;-69
2023/04/07 11:35:58;;;;;;;8.27;2.80;;;;;;;;;;5037675;28;20056;-71
2023/04/07 11:38:26;;;;;;;7.45;2.80;;;;;;;;;;5039843;28;20071;-70
2023/04/07 11:40:53;;;;;;;5.38;2.65;;;;;;;;;;5021641;28;20052;-71
2023/04/07 11:43:23;;;;;;;7.05;2.75;;;;;;;;;;5013901;28;20139;-71
2023/04/07 11:46:06;;;;;;;4.60;2.15;;;;;;;;;;5021935;28;20148;-69
2023/04/07 11:48:35;;;;;;;6.10;2.30;;;;;;;;;;5035143;28;20048;-68
2023/04/07 11:51:03;;;;;;;3.97;2.20;;;;;;;;;;5024451;28;20084;-70
2023/04/07 11:53:33;;;;;;;5.15;2.03;;;;;;;;;;5029421;28;20052;-69
2023/04/07 11:56:05;;;;;;;4.90;2.20;;;;;;;;;;5053089;28;20060;-70
2023/04/07 11:58:31;;;;;;;7.63;2.63;;;;;;;;;;5034827;28;20087;-71
2023/04/07 12:01:04;;;;;;;6.22;2.70;;;;;;;;;;5036898;28;20052;-71
2023/04/07 12:03:31;;;;;;;7.68;2.70;;;;;;;;;;5037910;28;20095;-69
2023/04/07 12:05:58;;;;;;;6.07;2.42;;;;;;;;;;5037614;28;20059;-69
2023/04/07 12:08:39;;;;;;;5.70;2.17;;;;;;;;;;5046128;28;20065;-68
2023/04/07 12:11:13;;;;;;;7.85;2.20;;;;;;;;;;5001792;28;21228;-74
2023/04/07 12:13:42;;;;;;;5.55;2.45;;;;;;;;;;5032620;28;20061;-72
2023/04/07 12:16:10;;;;;;;7.57;2.65;;;;;;;;;;5009505;28;20137;-71
2023/04/07 12:18:48;;;;;;;5.07;2.20;;;;;;;;;;5026810;28;20056;-72
2023/04/07 12:21:14;;;;;;;8.32;2.15;;;;;;;;;;5033300;28;20063;-69
2023/04/07 12:23:48;;;;;;;8.02;2.45;;;;;;;;;;5044709;28;20056;-68
2023/04/07 12:26:16;;;;;;;6.03;2.25;;;;;;;;;;5013872;28;20133;-71
2023/04/07 12:28:45;;;;;;;3.95;2.05;;;;;;;;;;5054644;28;20044;-67
2023/04/07 12:31:12;;;;;;;4.10;2.00;;;;;;;;;;5024974;28;20124;-71
2023/04/07 12:33:46;;;;;;;8.20;2.05;;;;;;;;;;5037480;28;20078;-67
2023/04/07 12:36:21;;;;;;;7.28;2.00;;;;;;;;;;4995643;28;20271;-68
2023/04/07 12:38:51;;;;;;;5.72;2.20;;;;;;;;;;5021574;28;20142;-69
2023/04/07 12:41:18;;;;;;;7.30;2.47;;;;;;;;;;4997937;28;20126;-69
2023/04/07 12:43:45;;;;;;;5.93;2.33;;;;;;;;;;5035018;28;20074;-70
2023/04/07 12:46:20;;;;;;;5.13;2.13;;;;;;;;;;5014406;28;20052;-71
2023/04/07 12:48:52;;;;;;;5.43;2.03;;;;;;;;;;5009507;28;20053;-72
2023/04/07 12:51:24;;;;;;;7.53;2.35;;;;;;;;;;5020921;28;20137;-71
2023/04/07 12:53:53;;;;;;;5.35;2.13;;;;;;;;;;4983439;28;20053;-68
2023/04/07 12:56:23;;;;;;;6.30;2.25;;;;;;;;;;4980848;28;20104;-71
2023/04/07 13:01:18;;;;;;;7.40;2.35;;;;;;;;;;4932578;28;20062;-70
2023/04/07 13:03:45;;;;;;;6.63;2.25;;;;;;;;;;4960846;28;20058;-73
2023/04/07 13:06:24;;;;;;;7.13;1.98;;;;;;;;;;4966999;28;20069;-73
2023/04/07 13:08:56;;;;;;;7.40;2.67;;;;;;;;;;4955642;28;20172;-67
2023/04/07 13:11:27;;;;;;;6.13;2.33;;;;;;;;;;5020252;28;20053;-69
2023/04/07 13:13:56;;;;;;;4.88;2.05;;;;;;;;;;5021718;28;20049;-70
2023/04/07 13:16:25;;;;;;;;;;;;;;;;;;5025710;28;20087;-68
2023/04/07 13:18:52;;;;;;;6.93;2.30;;;;;;;;;;5045315;28;19955;-69
2023/04/07 13:21:22;;;;;;;6.93;2.75;;;;;;;;;;5056480;28;20087;-72
2023/04/07 13:23:51;;;;;;;4.40;2.03;;;;;;;;;;5023802;28;20105;-70
2023/04/07 13:26:17;;;;;;;;;;;;;;;;;;5029000;28;20144;-69
2023/04/07 13:28:53;;;;;;;8.35;2.22;;;;;;;;;;5027076;28;20011;-70
2023/04/07 13:31:22;;;;;;;7.47;2.50;;;;;;;;;;5055284;28;20130;-69
2023/04/07 13:33:55;;;;;;;6.03;2.15;;;;;;;;;;5005304;28;20059;-70
2023/04/07 13:36:22;;;;;;;5.95;2.40;;;;;;;;;;5009301;28;20048;-72
2023/04/07 13:38:48;;;;;;;5.35;2.30;;;;;;;;;;5037631;28;20052;-69
2023/04/07 13:41:16;;;;;;;5.63;2.40;;;;;;;;;;5058343;28;20060;-68
2023/04/07 13:43:44;;;;;;;4.57;2.03;;;;;;;;;;5051275;28;20052;-70
2023/04/07 13:46:18;;;;;;;5.57;2.33;;;;;;;;;;5055300;28;20056;-70
2023/04/07 13:48:45;;;;;;;5.72;2.45;;;;;;;;;;5034941;28;20048;-68
2023/04/07 13:51:14;;;;;;;8.85;2.70;;;;;;;;;;5050818;28;21016;-68
2023/04/07 13:56:29;;;;;;;;;;;;;;;;;;5001260;28;20171;-71
2023/04/07 13:59:15;;;;;;;6.68;2.25;;;;;;;;;;5044694;28;19931;-69
2023/04/07 14:01:46;;;;;;;3.78;1.92;;;;;;;;;;5012129;28;20049;-67
2023/04/07 14:04:16;;;;;;;7.50;2.38;;;;;;;;;;5013886;28;20057;-69
2023/04/07 14:06:45;;;;;;;6.72;2.58;;;;;;;;;;5035729;28;20067;-70
2023/04/07 14:09:16;;;;;;;4.88;2.08;;;;;;;;;;5025453;28;21760;-70
2023/04/07 14:11:43;;;;;;;5.20;2.20;;;;;;;;;;5034421;28;20063;-75
2023/04/07 14:14:17;;;;;;;6.93;2.38;;;;;;;;;;5028947;28;20065;-71
2023/04/07 14:16:49;;;;;;;7.57;2.80;;;;;;;;;;5026055;28;20135;-71
2023/04/07 14:19:16;;;;;;;5.63;2.17;;;;;;;;;;5035476;28;20064;-71
2023/04/07 14:21:42;;;;;;;4.97;2.40;;;;;;;;;;5033607;28;20061;-71
2023/04/07 14:24:16;;;;;;;8.05;2.30;;;;;;;;;;5011086;28;20068;-72
2023/04/07 14:26:43;;;;;;;5.45;2.42;;;;;;;;;;4959017;28;20065;-73
2023/04/07 14:29:10;;;;;;;6.68;2.55;;;;;;;;;;5001558;28;20113;-73
2023/04/07 14:31:36;;;;;;;8.77;2.95;;;;;;;;;;5037088;28;20127;-74
2023/04/07 14:34:05;;;;;;;6.15;2.28;;;;;;;;;;5040527;28;20050;-70
2023/04/07 14:36:31;;;;;;;5.53;2.55;;;;;;;;;;5011153;28;20061;-68
2023/04/07 14:38:58;;;;;;;6.78;2.70;;;;;;;;;;5039945;28;20055;-67
2023/04/07 14:41:24;;;;;;;6.63;2.58;;;;;;;;;;5033995;28;20056;-72
2023/04/07 14:43:55;;;;;;;5.45;2.30;;;;;;;;;;5029502;28;20076;-71
2023/04/07 14:46:25;;;;;;;5.85;2.55;;;;;;;;;;5035187;28;20188;-73
2023/04/07 14:48:52;;;;;;;6.65;2.40;;;;;;;;;;5028466;28;20059;-69
2023/04/07 14:51:22;;;;;;;6.78;2.70;;;;;;;;;;5015417;28;20052;-73
2023/04/07 14:53:52;;;;;;;10.20;2.55;;;;;;;;;;5037209;28;20080;-70
2023/04/07 14:56:18;;;;;;;7.65;2.42;;;;;;;;;;5034768;28;20063;-70
2023/04/07 14:58:48;;;;;;;8.05;2.40;;;;;;;;;;5042331;28;20044;-72
2023/04/07 15:01:19;;;;;;;6.15;2.03;;;;;;;;;;5035504;28;20053;-74